Dodgeville, WI (53533)

2:37 PM CST on January 17, 2017 (GMT -0600)
Iowa County | | Change Station
Active Advisory: Special Statement

Elev 1175 ft 42.89 °N, 90.24 °W | Updated 22 minutes ago

Overcast
Overcast
34 °F
Feels Like 26 °F
N
9
Wind Variable Wind from West

Today
High -- | Low -- °F
--% Chance of Precip.
Yesterday
High -- | Low -- °F
Precip. -- in
Pressure 29.87 in
Visibility 4.0 miles
Clouds Overcast 200 ft
Windchill 26 °F
Dew Point 34 °F
Humidity 100%
Rainfall 0.00 in
Snow Depth Not available.
7:27 AM 4:54 PM
Waning Gibbous, 70% visible
METAR KMRJ 172015Z AUTO 28008KT 4SM BR OVC002 01/01 A2987 RMK AO2
Pressure 29.87 in
Visibility 4.0 miles
Clouds Overcast 200 ft
Windchill 26 °F
Dew Point 34 °F
Humidity 100%
Rainfall 0.00 in
Snow Depth Not available.
7:27 AM 4:54 PM
Waning Gibbous, 70% visible
METAR KMRJ 172015Z AUTO 28008KT 4SM BR OVC002 01/01 A2987 RMK AO2

Get Your Daily Forecast Email!

Thanks for signing up!

Be on the lookout for a verification email in your inbox.

You'll start receiving the daily forecast at 8 AM.

×

10-Day Weather Forecast

Almanac

Astronomy

Jan. 17, 2017 Rise Set
Actual Time
Civil Twilight
Nautical Twilight
Astronomical Twilight
Moon
Length of Visible Light
Length of Day
Tomorrow will be .
, % of the Moon is Illuminated

Today's Extremes

State Highs State Lows

Community

WunderPhotos

Upload Photos

1,962,540 photos uploaded!

WunderBlog® & News

Nearby

Air Quality

  Air Quality AQ Index Pollutant
Not available.

Snow Depth

Station Depth Elevation

Earthquake Activity

City Distance Mag. Time & Date
Minimum magnitude displayed is 2.5.

Coastal Water Temperatures

Place Temperature

Stations

Nearby Weather Stations

Station Location Temp. Windchill Dew Point Humidity Wind Precip. Elev Updated Type
                   

Watches & Warnings

Special Statement
Issued: 12:10 PM CST Jan. 17, 2017 – National Weather Service

... Continue to use caution if traveling this afternoon...

Temperatures will hover above freezing for the rest of the day.
Treated roads may still have slippery spots... especially on
secondary roads. Continue to use caution if traveling today.


Mrc

1210 PM CST Tue Jan 17 2017

... Continue to use caution if traveling this afternoon...

Temperatures will hover above freezing for the rest of the day.
Treated roads may still have slippery spots... especially on
secondary roads. Continue to use caution if traveling today.


Mrc


1210 PM CST Tue Jan 17 2017

... Continue to use caution if traveling this afternoon...

Temperatures will hover above freezing for the rest of the day.
Treated roads may still have slippery spots... especially on
secondary roads. Continue to use caution if traveling today.


Mrc